createdAt,value
2022-12-11T00:05:00.142Z,33
2022-12-11T00:15:07.282Z,28
2022-12-11T00:25:13.141Z,23
2022-12-11T00:35:18.948Z,21
2022-12-11T00:45:25.655Z,29
2022-12-11T00:55:30.748Z,16
2022-12-11T01:05:37.110Z,14
2022-12-11T01:15:44.945Z,14
2022-12-11T01:25:50.910Z,16
2022-12-11T01:35:55.968Z,15
2022-12-11T01:46:03.864Z,16
2022-12-11T01:56:07.372Z,18
2022-12-11T02:06:13.062Z,20
2022-12-11T02:16:20.853Z,18
2022-12-11T02:26:26.567Z,19
2022-12-11T02:36:32.434Z,23
2022-12-11T02:46:39.255Z,18
2022-12-11T02:56:44.512Z,20
2022-12-11T03:06:50.001Z,21
2022-12-11T03:16:56.589Z,17
2022-12-11T03:27:11.089Z,17
2022-12-11T03:37:09.526Z,19
2022-12-11T03:47:13.277Z,20
2022-12-11T03:57:19.028Z,18
2022-12-11T04:07:24.895Z,20
2022-12-11T04:17:30.625Z,24
2022-12-11T04:27:35.273Z,21
2022-12-11T04:37:39.746Z,21
2022-12-11T04:47:45.315Z,21
2022-12-11T04:57:50.681Z,24
2022-12-11T05:07:57.014Z,23
2022-12-11T05:18:02.998Z,24
2022-12-11T05:28:07.313Z,24
2022-12-11T05:38:13.241Z,27
2022-12-11T05:48:18.892Z,24
2022-12-11T05:58:24.763Z,23
2022-12-11T06:08:30.823Z,23
2022-12-11T06:18:37.540Z,24
2022-12-11T06:28:45.751Z,18
2022-12-11T06:38:53.053Z,19
2022-12-11T06:49:00.091Z,19
2022-12-11T06:59:08.169Z,20
2022-12-11T07:09:11.602Z,22
2022-12-11T07:19:17.712Z,21
2022-12-11T07:29:23.679Z,19
2022-12-11T07:39:28.697Z,22
2022-12-11T07:49:34.516Z,31
2022-12-11T07:59:42.160Z,29
2022-12-11T08:09:52.659Z,21
2022-12-11T08:19:52.648Z,24
2022-12-11T08:29:58.256Z,21
2022-12-11T08:40:03.543Z,18
2022-12-11T08:50:15.749Z,22
2022-12-11T09:00:16.239Z,24
2022-12-11T09:10:27.645Z,23
2022-12-11T09:20:29.185Z,34
2022-12-11T09:30:34.560Z,20
2022-12-11T09:40:50.184Z,19
2022-12-11T09:50:44.832Z,18
2022-12-11T10:00:53.476Z,18
2022-12-11T10:10:55.317Z,17
2022-12-11T10:21:00.302Z,19
2022-12-11T10:31:22.468Z,16
2022-12-11T10:41:24.382Z,15
2022-12-11T10:51:31.219Z,13
2022-12-11T11:01:37.535Z,14
2022-12-11T11:11:42.080Z,16
2022-12-11T11:21:48.116Z,15
2022-12-11T11:31:55.787Z,13
2022-12-11T11:42:02.337Z,12
2022-12-11T11:52:08.537Z,12
2022-12-11T12:02:15.253Z,15
2022-12-11T12:12:31.089Z,21
2022-12-11T12:22:26.430Z,19
2022-12-11T12:32:32.262Z,17
2022-12-11T12:42:44.427Z,21
2022-12-11T12:52:45.190Z,18
2022-12-11T13:02:50.063Z,16
2022-12-11T13:12:57.807Z,25
2022-12-11T13:23:05.589Z,23
2022-12-11T13:33:11.989Z,20
2022-12-11T13:43:18.689Z,20
2022-12-11T13:53:20.232Z,23
2022-12-11T14:03:27.532Z,21
2022-12-11T14:13:32.741Z,21
2022-12-11T14:23:38.263Z,22
2022-12-11T14:33:44.628Z,17
2022-12-11T14:43:51.303Z,18
2022-12-11T14:53:58.063Z,16
2022-12-11T15:04:04.371Z,17
2022-12-11T15:14:09.779Z,28
2022-12-11T15:24:15.455Z,25
2022-12-11T15:34:22.245Z,31
2022-12-11T15:44:34.638Z,37
2022-12-11T15:54:32.997Z,45
2022-12-11T16:04:41.489Z,35
2022-12-11T16:14:41.411Z,33
2022-12-11T16:24:46.471Z,46
2022-12-11T16:34:53.340Z,47
2022-12-11T16:44:59.503Z,55
2022-12-11T16:55:03.820Z,44
2022-12-11T17:05:11.817Z,70
2022-12-11T17:15:15.034Z,43
2022-12-11T17:25:22.131Z,38
2022-12-11T17:35:28.749Z,31
2022-12-11T17:45:34.324Z,15
2022-12-11T17:55:40.280Z,40
2022-12-11T18:05:46.771Z,41
2022-12-11T18:15:58.025Z,30
2022-12-11T18:25:58.933Z,25
2022-12-11T18:36:01.564Z,38
2022-12-11T18:46:07.201Z,28
2022-12-11T18:56:12.901Z,29
2022-12-11T19:06:18.969Z,33
2022-12-11T19:16:28.973Z,32
2022-12-11T19:26:28.350Z,34
2022-12-11T19:36:35.588Z,30
2022-12-11T19:46:42.052Z,31
2022-12-11T19:56:46.939Z,20
2022-12-11T20:06:53.058Z,24
2022-12-11T20:17:45.810Z,31
2022-12-11T20:27:39.166Z,22
2022-12-11T20:37:45.370Z,20
2022-12-11T20:47:49.316Z,21
2022-12-11T20:57:56.074Z,24
2022-12-11T21:08:01.651Z,18
2022-12-11T21:18:08.032Z,19
2022-12-11T21:28:14.668Z,22
2022-12-11T21:38:20.745Z,25
2022-12-11T21:50:12.510Z,23
2022-12-11T22:00:12.739Z,21
2022-12-11T22:10:18.821Z,28
2022-12-11T22:20:23.838Z,31
2022-12-11T22:30:29.677Z,23
2022-12-11T22:40:35.936Z,23
2022-12-11T22:50:45.740Z,16
2022-12-11T23:00:46.310Z,15
2022-12-11T23:10:48.998Z,13
2022-12-11T23:20:55.019Z,14
2022-12-11T23:31:01.378Z,10
2022-12-11T23:41:05.369Z,12
2022-12-11T23:51:12.360Z,10
